TimeAKDT,TemperatureF,Dew PointF,Humidity,Sea Level PressureIn,VisibilityMPH,Wind Direction,Wind SpeedMPH,Gust SpeedMPH,PrecipitationIn,Events,Conditions,WindDirDegrees,DateUTC
12:33 AM,33.8,33.8,100,30.16,2.5,SW,10.4,-,N/A,,Overcast,230,2012-10-08 08:33:00
12:53 AM,33.1,32.0,96,30.17,2.0,WSW,10.4,-,N/A,,Overcast,240,2012-10-08 08:53:00
1:24 AM,33.8,32.0,93,30.17,1.2,WSW,8.1,-,N/A,,Overcast,250,2012-10-08 09:24:00
1:51 AM,32.0,32.0,100,30.17,3.0,WSW,9.2,-,N/A,,Overcast,250,2012-10-08 09:51:00
1:53 AM,32.0,32.0,100,30.18,4.0,WSW,9.2,-,N/A,,Overcast,250,2012-10-08 09:53:00
2:18 AM,32.0,32.0,100,30.17,2.0,West,9.2,-,N/A,,Overcast,260,2012-10-08 10:18:00
2:41 AM,32.0,32.0,100,30.18,4.0,West,8.1,-,N/A,,Overcast,260,2012-10-08 10:41:00
2:53 AM,32.0,32.0,100,30.18,7.0,West,9.2,-,N/A,,Overcast,260,2012-10-08 10:53:00
3:53 AM,32.0,30.9,96,30.19,8.0,West,10.4,-,N/A,,Overcast,260,2012-10-08 11:53:00
4:53 AM,32.0,30.9,96,30.19,4.0,WSW,8.1,-,N/A,,Overcast,250,2012-10-08 12:53:00
5:25 AM,32.0,30.2,93,30.19,2.5,West,9.2,-,N/A,,Overcast,260,2012-10-08 13:25:00
5:32 AM,30.2,30.2,100,30.19,1.5,WSW,8.1,-,0.00,Snow,Light Snow,250,2012-10-08 13:32:00
5:53 AM,30.9,30.9,100,30.19,9.0,West,9.2,-,0.00,Snow,Light Snow,260,2012-10-08 13:53:00
6:13 AM,32.0,30.2,93,30.19,1.8,West,10.4,-,0.00,Snow,Light Snow,260,2012-10-08 14:13:00
6:50 AM,32.0,30.2,93,30.19,2.5,WSW,8.1,-,0.00,Snow,Light Snow,250,2012-10-08 14:50:00
6:53 AM,32.0,32.0,100,30.20,2.5,WSW,6.9,-,0.00,Snow,Light Snow,250,2012-10-08 14:53:00
7:09 AM,32.0,32.0,100,30.20,3.0,West,8.1,-,0.00,Snow,Light Snow,260,2012-10-08 15:09:00
7:23 AM,32.0,32.0,100,30.20,2.5,West,5.8,-,0.00,Snow,Light Snow,270,2012-10-08 15:23:00
7:53 AM,32.0,32.0,100,30.21,1.5,West,5.8,-,0.00,Snow,Light Snow,280,2012-10-08 15:53:00
8:31 AM,33.8,32.0,93,30.21,2.0,West,4.6,-,0.01,Snow,Light Snow,280,2012-10-08 16:31:00
8:43 AM,32.0,32.0,100,30.21,1.8,West,4.6,-,0.01,Snow,Light Snow,280,2012-10-08 16:43:00
8:53 AM,33.1,32.0,96,30.22,1.5,NNW,5.8,-,0.02,Snow,Light Snow,330,2012-10-08 16:53:00
9:53 AM,32.0,32.0,100,30.24,1.0,NNE,10.4,-,0.00,Snow,Light Snow,20,2012-10-08 17:53:00
10:29 AM,32.0,30.2,93,30.25,2.0,North,18.4,-,0.01,Snow,Light Snow,360,2012-10-08 18:29:00
10:39 AM,32.0,30.2,93,30.25,3.0,North,17.3,-,0.01,Snow,Light Snow,360,2012-10-08 18:39:00
10:53 AM,32.0,30.0,92,30.27,5.0,North,19.6,23.0,0.01,Snow,Light Snow,360,2012-10-08 18:53:00
11:14 AM,32.0,28.4,87,30.26,10.0,North,13.8,-,0.00,,Overcast,360,2012-10-08 19:14:00
11:23 AM,32.0,30.2,93,30.27,9.0,North,11.5,-,0.00,Snow,Light Snow,360,2012-10-08 19:23:00
11:53 AM,30.9,28.0,89,30.29,10.0,North,11.5,-,0.00,,Overcast,350,2012-10-08 19:53:00
12:53 PM,32.0,27.0,82,30.31,10.0,NNW,12.7,-,N/A,,Overcast,340,2012-10-08 20:53:00
1:53 PM,32.0,28.0,85,30.34,9.0,NNW,11.5,-,N/A,,Mostly Cloudy,340,2012-10-08 21:53:00
2:53 PM,30.9,27.0,85,30.37,8.0,NNW,12.7,-,N/A,,Mostly Cloudy,330,2012-10-08 22:53:00
3:53 PM,30.0,26.1,85,30.39,9.0,WNW,8.1,-,N/A,,Mostly Cloudy,290,2012-10-08 23:53:00
4:53 PM,30.9,28.0,89,30.41,9.0,West,15.0,-,N/A,,Overcast,280,2012-10-09 00:53:00
5:36 PM,30.2,28.4,93,30.42,1.5,NW,13.8,-,0.00,Snow,Light Snow,310,2012-10-09 01:36:00
5:53 PM,30.0,28.0,92,30.43,0.8,NNW,13.8,-,0.00,Snow,Light Snow,340,2012-10-09 01:53:00
6:00 PM,30.2,28.4,93,30.43,0.8,NNW,10.4,-,0.00,Snow,Light Snow,330,2012-10-09 02:00:00
6:03 PM,30.2,28.4,93,30.43,2.0,NW,10.4,-,0.00,Snow,Light Snow,310,2012-10-09 02:03:00
6:07 PM,30.2,28.4,93,30.43,7.0,NW,10.4,-,0.00,Snow,Light Snow,310,2012-10-09 02:07:00
6:53 PM,28.9,27.0,92,30.45,5.0,West,6.9,-,0.00,Snow,Light Snow,270,2012-10-09 02:53:00
7:53 PM,27.0,25.0,92,30.47,7.0,WSW,10.4,-,0.00,Snow,Light Snow,250,2012-10-09 03:53:00
8:53 PM,28.0,26.1,92,30.48,9.0,West,11.5,-,0.00,Snow,Light Snow,260,2012-10-09 04:53:00
9:53 PM,28.9,27.0,92,30.51,9.0,West,13.8,-,0.00,Snow,Light Snow,270,2012-10-09 05:53:00
10:53 PM,26.1,24.1,92,30.51,9.0,West,16.1,-,0.00,Snow,Light Snow,260,2012-10-09 06:53:00
11:53 PM,25.0,23.0,92,30.53,9.0,WSW,13.8,-,0.00,,Scattered Clouds,240,2012-10-09 07:53:00